Time;durP1;ratioP1;P1;durP2;ratioP2;P2;SDS_P1;SDS_P2;PMS_P1;PMS_P2;Temp;Humidity;BMP_temperature;BMP_pressure;BME280_temperature;BME280_humidity;BME280_pressure;Samples;Min_cycle;Max_cycle;Signal;HPM_P1;HPM_P2
2023/03/11 00:00:27;;;;;;;4.93;1.50;;;4.70;76.40;;;;;;5094103;28;20147;-64
2023/03/11 00:02:54;;;;;;;6.37;1.93;;;4.70;76.40;;;;;;5082562;28;20787;-64
2023/03/11 00:05:23;;;;;;;7.27;1.77;;;4.60;76.30;;;;;;5079014;28;20024;-64
2023/03/11 00:07:50;;;;;;;7.67;1.60;;;4.70;76.30;;;;;;5094067;28;20035;-64
2023/03/11 00:10:20;;;;;;;6.17;1.43;;;4.70;76.30;;;;;;5089250;28;20463;-64
2023/03/11 00:12:46;;;;;;;5.60;1.93;;;4.70;76.30;;;;;;5085306;28;20020;-64
2023/03/11 00:15:12;;;;;;;6.57;2.07;;;4.60;76.90;;;;;;5097225;28;20332;-64
2023/03/11 00:17:38;;;;;;;4.73;2.27;;;4.60;76.30;;;;;;5094774;28;20322;-64
2023/03/11 00:20:05;;;;;;;4.60;1.70;;;4.60;76.30;;;;;;5092065;28;20020;-64
2023/03/11 00:22:32;;;;;;;6.63;1.93;;;4.60;76.30;;;;;;5092928;28;20031;-64
2023/03/11 00:24:58;;;;;;;4.70;1.73;;;4.60;76.20;;;;;;5095946;28;20028;-64
2023/03/11 00:27:23;;;;;;;6.30;1.83;;;4.60;76.10;;;;;;5093916;28;20020;-64
2023/03/11 00:29:49;;;;;;;5.60;2.03;;;4.60;76.10;;;;;;5087367;28;20029;-64
2023/03/11 00:32:15;;;;;;;6.63;1.77;;;4.60;76.00;;;;;;5090609;28;20356;-64
2023/03/11 00:34:41;;;;;;;7.30;1.90;;;4.60;76.00;;;;;;5092441;28;20028;-64
2023/03/11 00:37:07;;;;;;;5.87;1.90;;;4.60;76.00;;;;;;5093530;28;20031;-64
2023/03/11 00:39:33;;;;;;;5.40;1.87;;;4.50;75.90;;;;;;5093169;28;20035;-64
2023/03/11 00:41:59;;;;;;;7.33;2.37;;;4.60;75.80;;;;;;5094551;28;20017;-64
2023/03/11 00:44:25;;;;;;;8.87;2.30;;;4.60;75.80;;;;;;5095840;28;20180;-64
2023/03/11 00:46:51;;;;;;;8.40;2.23;;;4.60;75.70;;;;;;5092809;28;20480;-64
2023/03/11 00:49:17;;;;;;;8.10;1.90;;;4.50;75.60;;;;;;5092411;28;20036;-64
2023/03/11 00:51:43;;;;;;;5.57;1.70;;;4.50;75.50;;;;;;5092927;28;20127;-64
2023/03/11 00:54:09;;;;;;;8.37;2.10;;;4.50;75.50;;;;;;5101069;28;20431;-64
2023/03/11 00:56:35;;;;;;;6.23;1.63;;;4.50;75.40;;;;;;5087716;28;20099;-64
2023/03/11 00:59:01;;;;;;;7.73;2.27;;;4.50;75.40;;;;;;5093860;28;20119;-64
2023/03/11 01:01:27;;;;;;;5.77;1.70;;;4.50;75.30;;;;;;5092092;28;20023;-64
2023/03/11 01:03:52;;;;;;;10.40;3.20;;;4.50;75.20;;;;;;5088903;28;20039;-64
2023/03/11 01:06:18;;;;;;;5.17;1.83;;;4.50;75.20;;;;;;5078661;28;20029;-64
2023/03/11 01:08:44;;;;;;;6.07;1.77;;;4.50;75.10;;;;;;5091012;28;20048;-64
2023/03/11 01:11:10;;;;;;;7.03;2.07;;;4.50;75.00;;;;;;5089407;28;20085;-64
2023/03/11 01:13:37;;;;;;;4.70;1.97;;;4.50;74.90;;;;;;5093152;28;20028;-64
2023/03/11 01:16:03;;;;;;;7.70;2.00;;;4.50;74.90;;;;;;5091093;28;20017;-64
2023/03/11 01:18:29;;;;;;;8.63;1.70;;;4.40;74.80;;;;;;5104004;28;20048;-64
2023/03/11 01:20:55;;;;;;;7.03;2.40;;;4.40;74.80;;;;;;5086913;28;20034;-64
2023/03/11 01:23:21;;;;;;;5.70;1.70;;;4.40;75.10;;;;;;5093902;28;20031;-64
2023/03/11 01:25:47;;;;;;;7.20;1.80;;;4.40;74.80;;;;;;5092246;28;20028;-64
2023/03/11 01:28:13;;;;;;;5.87;1.70;;;4.40;74.80;;;;;;5092507;28;20074;-64
2023/03/11 01:30:41;;;;;;;4.50;1.60;;;4.40;74.70;;;;;;5090938;28;20097;-64
2023/03/11 01:33:11;;;;;;;7.10;1.97;;;4.40;74.70;;;;;;5074719;28;20028;-64
2023/03/11 01:35:38;;;;;;;;;;;4.40;74.70;;;;;;5095994;28;20107;-64
2023/03/11 01:38:04;;;;;;;3.73;1.47;;;4.40;74.70;;;;;;5096365;28;19909;-64
2023/03/11 01:40:34;;;;;;;3.70;1.20;;;4.30;74.70;;;;;;5074984;28;20169;-64
2023/03/11 01:43:05;;;;;;;4.73;1.70;;;4.30;74.70;;;;;;5092795;28;20372;-64
2023/03/11 01:45:46;;;;;;;4.87;1.60;;;4.30;74.60;;;;;;5091586;28;20028;-64
2023/03/11 01:48:12;;;;;;;3.70;1.50;;;4.30;75.30;;;;;;5085915;28;20024;-64
2023/03/11 01:50:42;;;;;;;5.50;1.57;;;4.30;74.60;;;;;;5092175;28;20039;-64
2023/03/11 01:53:09;;;;;;;5.10;2.00;;;4.30;74.60;;;;;;5088042;28;20035;-64
2023/03/11 01:55:36;;;;;;;5.73;1.70;;;4.30;74.60;;;;;;5075710;28;20023;-64
2023/03/11 01:58:06;;;;;;;4.47;1.60;;;4.30;74.70;;;;;;5073785;28;20396;-64
2023/03/11 02:00:32;;;;;;;7.30;1.80;;;4.20;74.60;;;;;;5109521;28;20051;-64
2023/03/11 02:03:01;;;;;;;5.93;1.73;;;4.30;74.60;;;;;;5084842;28;20040;-64
2023/03/11 02:05:27;;;;;;;7.00;2.23;;;4.20;74.60;;;;;;5080332;28;20034;-64
2023/03/11 02:07:54;;;;;;;7.17;1.50;;;4.20;74.50;;;;;;5091755;28;20024;-64
2023/03/11 02:10:24;;;;;;;10.53;2.17;;;4.20;74.50;;;;;;5081042;28;20028;-64
2023/03/11 02:12:50;;;;;;;7.67;2.10;;;4.20;74.50;;;;;;5095878;28;20454;-64
2023/03/11 02:15:24;;;;;;;3.63;1.37;;;4.20;74.50;;;;;;5109187;28;20020;-64
2023/03/11 02:17:51;;;;;;;3.77;1.43;;;4.20;74.50;;;;;;5072475;28;20040;-64
2023/03/11 02:20:27;;;;;;;9.30;2.30;;;4.20;74.50;;;;;;5092703;28;20437;-64
2023/03/11 02:22:56;;;;;;;5.33;1.90;;;4.20;74.40;;;;;;5090280;28;20338;-64
2023/03/11 02:25:56;;;;;;;7.60;2.47;;;4.20;74.50;;;;;;5093669;28;20115;-64
2023/03/11 02:28:23;;;;;;;2.30;1.30;;;4.20;74.40;;;;;;5096809;28;20452;-64
2023/03/11 02:30:49;;;;;;;4.57;1.90;;;4.10;74.40;;;;;;5092424;28;20068;-64
2023/03/11 02:33:17;;;;;;;4.57;1.47;;;4.10;74.50;;;;;;5094717;28;20028;-64
2023/03/11 02:35:45;;;;;;;4.47;1.30;;;4.10;74.50;;;;;;5095758;28;20062;-64
2023/03/11 02:38:10;;;;;;;7.13;2.10;;;4.10;74.50;;;;;;5093975;28;20044;-64
2023/03/11 02:40:55;;;;;;;6.23;1.90;;;4.10;74.50;;;;;;5078160;28;20032;-64
2023/03/11 02:43:33;;;;;;;7.30;1.97;;;4.10;74.50;;;;;;5089956;28;20036;-65
2023/03/11 02:46:00;;;;;;;6.97;1.63;;;4.10;75.20;;;;;;5095778;28;20116;-64
2023/03/11 02:48:29;;;;;;;5.47;1.60;;;4.00;74.60;;;;;;5076424;28;20034;-64
2023/03/11 02:50:56;;;;;;;10.17;2.30;;;4.00;74.50;;;;;;5094926;28;20032;-64
2023/03/11 02:53:22;;;;;;;6.03;1.63;;;4.00;74.50;;;;;;5094512;28;20081;-64
2023/03/11 02:55:48;;;;;;;7.60;1.70;;;4.00;74.50;;;;;;5093171;28;20035;-64
2023/03/11 02:58:14;;;;;;;6.53;1.77;;;4.00;74.50;;;;;;5095204;28;20024;-64
2023/03/11 03:00:40;;;;;;;7.20;1.50;;;4.00;74.50;;;;;;5093749;28;20016;-64
2023/03/11 03:03:07;;;;;;;5.83;1.60;;;4.00;74.50;;;;;;5077492;28;20101;-64
2023/03/11 03:05:33;;;;;;;6.50;1.80;;;4.00;74.50;;;;;;5094975;28;20384;-64
2023/03/11 03:08:01;;;;;;;7.80;1.97;;;4.10;74.50;;;;;;5094242;28;20044;-64
2023/03/11 03:10:27;;;;;;;4.80;1.33;;;4.10;74.50;;;;;;5093408;28;20024;-64
2023/03/11 03:12:53;;;;;;;4.50;1.27;;;4.00;74.50;;;;;;5094705;28;20028;-64
2023/03/11 03:15:19;;;;;;;5.50;1.80;;;4.10;74.60;;;;;;5100801;28;20020;-64
2023/03/11 03:17:45;;;;;;;4.73;1.70;;;4.10;74.60;;;;;;5078120;28;20354;-64
2023/03/11 03:20:13;;;;;;;4.83;1.83;;;4.00;74.50;;;;;;5085741;28;20028;-64
2023/03/11 03:22:42;;;;;;;2.90;1.30;;;4.10;74.60;;;;;;5090705;28;20031;-64
2023/03/11 03:25:10;;;;;;;6.13;2.10;;;4.00;74.60;;;;;;5093710;28;20024;-64
2023/03/11 03:27:36;;;;;;;6.13;1.63;;;4.00;74.60;;;;;;5095019;28;20447;-64
2023/03/11 03:30:04;;;;;;;3.80;1.50;;;4.10;74.70;;;;;;5074889;28;20024;-64
2023/03/11 03:32:30;;;;;;;6.13;1.80;;;4.00;74.60;;;;;;5070527;28;20491;-64
2023/03/11 03:34:58;;;;;;;5.57;1.87;;;4.00;74.60;;;;;;5099543;28;20023;-64
2023/03/11 03:37:33;;;;;;;7.17;1.70;;;4.00;74.60;;;;;;5101204;28;20460;-64
2023/03/11 03:39:59;;;;;;;8.50;1.60;;;4.00;74.60;;;;;;5096234;28;20441;-64
2023/03/11 03:42:26;;;;;;;6.13;2.40;;;4.00;74.60;;;;;;5094106;28;20365;-64
2023/03/11 03:44:52;;;;;;;5.23;1.73;;;4.00;74.60;;;;;;5098732;28;20024;-64
2023/03/11 03:47:19;;;;;;;2.77;1.33;;;4.00;74.70;;;;;;5094324;28;20036;-64
2023/03/11 03:49:45;;;;;;;7.43;2.07;;;4.00;74.70;;;;;;5093360;28;20449;-64
2023/03/11 03:52:11;;;;;;;5.67;1.80;;;4.00;74.70;;;;;;5094308;28;20024;-64
2023/03/11 03:54:38;;;;;;;5.97;2.03;;;4.00;74.70;;;;;;5093332;28;20035;-64
2023/03/11 03:57:05;;;;;;;4.80;1.70;;;4.00;74.70;;;;;;5094383;28;20040;-64
2023/03/11 03:59:35;;;;;;;4.37;2.07;;;4.00;74.70;;;;;;5093039;28;20486;-64
2023/03/11 04:02:01;;;;;;;3.17;1.50;;;4.00;74.70;;;;;;5089563;28;20119;-64
2023/03/11 04:04:29;;;;;;;5.03;2.10;;;4.10;74.70;;;;;;5093985;28;20536;-64
2023/03/11 04:06:56;;;;;;;5.73;1.57;;;4.10;74.70;;;;;;5101039;28;20021;-64
2023/03/11 04:09:22;;;;;;;6.37;1.83;;;4.10;74.60;;;;;;5094117;28;20468;-64
2023/03/11 04:11:48;;;;;;;4.50;1.70;;;4.10;74.60;;;;;;5076671;28;20165;-64
2023/03/11 04:14:15;;;;;;;5.07;1.90;;;4.10;74.60;;;;;;5094245;28;20028;-64
2023/03/11 04:16:49;;;;;;;4.20;1.40;;;4.10;74.60;;;;;;5092214;28;20058;-64
2023/03/11 04:19:14;;;;;;;8.07;2.10;;;4.10;74.60;;;;;;5093794;28;20020;-64
2023/03/11 04:21:40;;;;;;;4.47;1.80;;;4.10;74.60;;;;;;5092954;28;20035;-64
2023/03/11 04:24:06;;;;;;;5.30;1.90;;;4.10;74.60;;;;;;5093561;28;20020;-64
2023/03/11 04:26:35;;;;;;;7.10;1.90;;;4.00;74.60;;;;;;5094978;28;20077;-64
2023/03/11 04:29:02;;;;;;;7.70;2.00;;;4.00;74.60;;;;;;5088534;28;20039;-64
2023/03/11 04:31:31;;;;;;;5.40;1.90;;;4.00;74.70;;;;;;5088428;28;20115;-64
2023/03/11 04:33:59;;;;;;;3.10;1.53;;;4.00;74.70;;;;;;5093427;28;20043;-64
2023/03/11 04:36:25;;;;;;;4.43;1.67;;;4.00;74.70;;;;;;5079277;28;20023;-64
2023/03/11 04:38:51;;;;;;;5.03;2.00;;;4.00;74.70;;;;;;5075366;28;20474;-64
2023/03/11 04:41:17;;;;;;;5.57;1.70;;;4.00;74.60;;;;;;5074651;28;20453;-64
2023/03/11 04:43:44;;;;;;;5.40;1.50;;;4.00;74.60;;;;;;5104485;28;20115;-64
2023/03/11 04:46:09;;;;;;;5.33;1.77;;;4.00;74.60;;;;;;5075329;28;20143;-64
2023/03/11 04:48:36;;;;;;;5.77;1.70;;;4.00;74.60;;;;;;5076372;28;20348;-64
2023/03/11 04:51:02;;;;;;;4.67;1.40;;;3.90;74.50;;;;;;5091485;28;20031;-64
2023/03/11 04:53:28;;;;;;;5.60;1.60;;;3.90;74.50;;;;;;5075279;28;20020;-64
2023/03/11 04:55:55;;;;;;;9.23;1.53;;;3.90;74.50;;;;;;5092285;28;20059;-64
2023/03/11 04:58:21;;;;;;;4.90;1.70;;;3.90;74.50;;;;;;5075313;28;20024;-64
2023/03/11 05:00:47;;;;;;;8.67;1.53;;;3.90;74.40;;;;;;5091828;28;20543;-64
2023/03/11 05:03:14;;;;;;;4.20;1.50;;;3.90;74.40;;;;;;5074868;28;20445;-64
2023/03/11 05:05:39;;;;;;;4.83;1.47;;;3.90;74.30;;;;;;5103412;28;20095;-64
2023/03/11 05:08:06;;;;;;;4.13;1.60;;;3.90;74.30;;;;;;5094146;28;20028;-64
2023/03/11 05:10:33;;;;;;;5.00;1.70;;;3.80;74.30;;;;;;5092725;28;20100;-64
2023/03/11 05:13:02;;;;;;;3.27;1.50;;;3.80;74.40;;;;;;5090418;28;20028;-64
2023/03/11 05:15:31;;;;;;;4.33;1.70;;;3.90;74.40;;;;;;5076730;28;20030;-64
2023/03/11 05:18:00;;;;;;;5.03;1.80;;;3.80;74.30;;;;;;5092466;28;20072;-64
2023/03/11 05:20:26;;;;;;;5.27;1.33;;;3.80;74.30;;;;;;5091764;28;20020;-64
2023/03/11 05:22:52;;;;;;;6.63;1.73;;;3.80;74.30;;;;;;5095062;28;20301;-64
2023/03/11 05:25:17;;;;;;;5.77;1.80;;;3.80;74.40;;;;;;5092315;28;20512;-64
2023/03/11 05:27:43;;;;;;;5.60;1.50;;;3.80;74.40;;;;;;5091807;28;20044;-64
2023/03/11 05:30:10;;;;;;;4.77;1.47;;;3.70;74.30;;;;;;5086443;28;20101;-64
2023/03/11 05:32:37;;;;;;;4.47;1.50;;;3.70;74.30;;;;;;5086996;28;20032;-64
2023/03/11 05:35:06;;;;;;;2.87;1.00;;;3.80;74.40;;;;;;5088743;28;20025;-64
2023/03/11 05:37:32;;;;;;;5.57;1.67;;;3.70;74.40;;;;;;5091456;28;20043;-64
2023/03/11 05:39:59;;;;;;;2.97;1.40;;;3.70;74.40;;;;;;5088672;28;20191;-64
2023/03/11 05:42:25;;;;;;;3.43;1.37;;;3.70;74.40;;;;;;5090465;28;20055;-64
2023/03/11 05:44:53;;;;;;;5.50;1.53;;;3.70;74.50;;;;;;5088108;28;20081;-64
2023/03/11 05:47:21;;;;;;;4.53;1.50;;;3.60;74.40;;;;;;5088002;28;20020;-65
2023/03/11 05:49:48;;;;;;;4.47;1.20;;;3.60;74.40;;;;;;5073194;28;20024;-64
2023/03/11 05:52:16;;;;;;;4.13;1.30;;;3.60;74.40;;;;;;5073651;28;20103;-64
2023/03/11 05:54:42;;;;;;;5.30;1.73;;;3.60;74.40;;;;;;5090711;28;20028;-64
2023/03/11 05:57:08;;;;;;;4.60;1.40;;;3.60;74.40;;;;;;5088433;28;20017;-64
2023/03/11 05:59:36;;;;;;;3.37;1.00;;;3.60;74.40;;;;;;5092065;28;20081;-64
2023/03/11 06:02:03;;;;;;;6.67;2.33;;;3.60;74.30;;;;;;5094697;28;20032;-64
2023/03/11 06:04:30;;;;;;;4.90;1.83;;;3.60;74.20;;;;;;5091138;28;20101;-64
2023/03/11 06:06:57;;;;;;;5.73;1.40;;;3.60;74.20;;;;;;5098863;28;20056;-64
2023/03/11 06:09:26;;;;;;;4.43;1.30;;;3.60;74.20;;;;;;5092894;28;20020;-64
2023/03/11 06:11:52;;;;;;;3.70;1.43;;;3.60;74.20;;;;;;5093957;28;20034;-64
2023/03/11 06:14:21;;;;;;;3.63;1.40;;;3.60;74.10;;;;;;5090820;28;20134;-64
2023/03/11 06:16:49;;;;;;;3.60;1.30;;;3.60;74.10;;;;;;5083189;28;20465;-64
2023/03/11 06:19:17;;;;;;;3.53;1.43;;;3.60;74.10;;;;;;5095679;28;20049;-64
2023/03/11 06:21:47;;;;;;;3.47;1.30;;;3.60;74.00;;;;;;5095097;28;20224;-64
2023/03/11 06:24:13;;;;;;;4.33;1.40;;;3.60;74.00;;;;;;5104137;28;20074;-64
2023/03/11 06:26:39;;;;;;;3.80;1.77;;;3.60;73.90;;;;;;5074089;28;20032;-64
2023/03/11 06:29:10;;;;;;;5.77;1.60;;;3.50;73.90;;;;;;5095377;28;20425;-64
2023/03/11 06:31:36;;;;;;;3.80;1.25;;;3.50;73.90;;;;;;5095956;28;20115;-65
2023/03/11 06:34:08;;;;;;;3.57;1.30;;;3.50;73.90;;;;;;5095157;28;20028;-65
2023/03/11 06:36:34;;;;;;;4.10;1.30;;;3.50;73.90;;;;;;5095423;28;20020;-64
2023/03/11 06:39:00;;;;;;;3.73;1.30;;;3.50;73.90;;;;;;5074513;28;20361;-64
2023/03/11 06:41:27;;;;;;;4.30;1.77;;;3.60;73.90;;;;;;5095125;28;20020;-64
2023/03/11 06:43:53;;;;;;;4.63;1.33;;;3.60;73.90;;;;;;5094396;28;20024;-64
2023/03/11 06:46:21;;;;;;;4.27;1.30;;;3.60;73.90;;;;;;5099316;28;20066;-64
2023/03/11 06:48:53;;;;;;;3.42;1.23;;;3.60;73.80;;;;;;5078034;28;20016;-65
2023/03/11 06:51:20;;;;;;;5.20;1.50;;;3.60;73.70;;;;;;5095239;28;20119;-64
2023/03/11 06:53:51;;;;;;;4.57;1.27;;;3.60;73.70;;;;;;5093974;28;20158;-64
2023/03/11 06:56:19;;;;;;;3.47;1.20;;;3.60;73.70;;;;;;5093625;28;20031;-64
2023/03/11 06:58:50;;;;;;;;;;;3.60;73.80;;;;;;5091726;28;20138;-65
2023/03/11 07:01:20;;;;;;;3.87;1.40;;;3.60;73.70;;;;;;5086530;28;19927;-65
2023/03/11 07:03:47;;;;;;;5.33;1.77;;;3.60;73.70;;;;;;5093773;28;20032;-65
2023/03/11 07:06:21;;;;;;;4.90;1.50;;;3.70;73.80;;;;;;5073037;28;20024;-65
2023/03/11 07:08:49;;;;;;;4.73;1.70;;;3.80;73.60;;;;;;5097328;28;20023;-65
2023/03/11 07:11:26;;;;;;;5.43;1.70;;;3.90;73.40;;;;;;5094119;28;20077;-65
2023/03/11 07:13:56;;;;;;;6.13;1.70;;;4.00;73.10;;;;;;5094474;28;20053;-65
2023/03/11 07:16:28;;;;;;;7.47;1.40;;;4.10;73.00;;;;;;5093173;28;20027;-65
2023/03/11 07:19:02;;;;;;;3.50;1.57;;;4.10;72.90;;;;;;5097135;28;20024;-65
2023/03/11 07:21:30;;;;;;;5.60;1.60;;;4.20;72.70;;;;;;5095977;28;20093;-65
2023/03/11 07:23:59;;;;;;;3.73;1.37;;;4.30;72.60;;;;;;5094276;28;20036;-65
2023/03/11 07:26:26;;;;;;;5.27;1.43;;;4.40;72.50;;;;;;5093077;28;20032;-65
2023/03/11 07:28:54;;;;;;;2.60;1.30;;;4.50;72.40;;;;;;5096392;28;20032;-65
2023/03/11 07:31:22;;;;;;;7.97;2.23;;;4.60;72.20;;;;;;5081510;28;20158;-65
2023/03/11 07:33:48;;;;;;;5.50;1.80;;;4.60;72.10;;;;;;5102114;28;20425;-64
2023/03/11 07:36:17;;;;;;;5.13;1.90;;;4.80;72.00;;;;;;5103296;28;20066;-65
2023/03/11 07:38:43;;;;;;;4.30;1.30;;;4.80;72.40;;;;;;5093978;28;20056;-64
2023/03/11 07:41:10;;;;;;;5.30;1.70;;;4.90;71.60;;;;;;5094746;28;20050;-65
2023/03/11 07:43:37;;;;;;;4.53;1.60;;;5.00;71.60;;;;;;5092940;28;20031;-64
2023/03/11 07:46:07;;;;;;;5.20;1.40;;;5.00;71.60;;;;;;5102742;28;20100;-64
2023/03/11 07:48:34;;;;;;;4.50;1.53;;;5.20;71.60;;;;;;5099919;28;20028;-64
2023/03/11 07:51:33;;;;;;;6.20;1.80;;;5.30;71.30;;;;;;5095189;28;20066;-63
2023/03/11 07:54:00;;;;;;;6.37;1.70;;;5.40;70.90;;;;;;5082199;28;20455;-64
2023/03/11 07:56:28;;;;;;;5.47;1.73;;;5.50;70.90;;;;;;5090333;28;20056;-63
2023/03/11 07:58:54;;;;;;;6.27;1.83;;;5.60;70.80;;;;;;5094981;28;20017;-66
2023/03/11 08:01:23;;;;;;;6.33;1.90;;;5.70;70.60;;;;;;5099798;28;20464;-66
2023/03/11 08:03:55;;;;;;;5.53;1.80;;;5.80;70.30;;;;;;5095690;28;20089;-66
2023/03/11 08:06:24;;;;;;;5.00;1.23;;;5.90;70.10;;;;;;5095155;28;20036;-66
2023/03/11 08:08:50;;;;;;;5.40;1.80;;;6.00;70.00;;;;;;5097112;28;20043;-66
2023/03/11 08:11:17;;;;;;;6.03;1.43;;;6.20;69.70;;;;;;5091663;28;20440;-65
2023/03/11 08:13:44;;;;;;;4.53;1.50;;;6.30;69.40;;;;;;5100528;28;20035;-65
2023/03/11 08:16:16;;;;;;;3.67;1.47;;;6.50;69.20;;;;;;5093737;28;20062;-65
2023/03/11 08:18:43;;;;;;;5.80;1.80;;;6.60;68.90;;;;;;5091688;28;20024;-64
2023/03/11 08:21:13;;;;;;;4.73;1.60;;;6.80;68.60;;;;;;5092572;28;20107;-65
2023/03/11 08:23:39;;;;;;;4.67;1.40;;;6.90;68.30;;;;;;5075761;28;20039;-66
2023/03/11 08:26:06;;;;;;;4.33;1.83;;;7.00;67.80;;;;;;5105954;28;20028;-65
2023/03/11 08:28:32;;;;;;;4.83;1.53;;;7.10;67.40;;;;;;5069376;28;20080;-65
2023/03/11 08:30:59;;;;;;;6.23;1.90;;;7.20;67.30;;;;;;5082837;28;20032;-65
2023/03/11 08:33:24;;;;;;;4.33;1.60;;;7.40;67.60;;;;;;5093109;28;20032;-65
2023/03/11 08:35:50;;;;;;;3.37;1.10;;;7.50;66.50;;;;;;5093564;28;20456;-65
2023/03/11 08:38:16;;;;;;;5.93;1.70;;;7.60;66.20;;;;;;5094531;28;20103;-65
2023/03/11 08:40:42;;;;;;;8.00;1.83;;;7.80;65.90;;;;;;5086315;28;20067;-66
2023/03/11 08:43:11;;;;;;;5.10;1.83;;;7.90;65.60;;;;;;5085966;28;20165;-65
2023/03/11 08:45:39;;;;;;;5.53;1.60;;;8.00;65.30;;;;;;5101515;28;20036;-65
2023/03/11 08:48:05;;;;;;;6.07;1.77;;;8.10;65.00;;;;;;5096837;28;20023;-65
2023/03/11 08:50:30;;;;;;;5.93;1.67;;;8.20;64.60;;;;;;5092389;28;20032;-65
2023/03/11 08:52:59;;;;;;;4.40;1.40;;;8.30;64.30;;;;;;5072852;28;20028;-65
2023/03/11 08:55:27;;;;;;;6.00;1.87;;;8.50;64.10;;;;;;5096928;28;20505;-65
2023/03/11 08:57:53;;;;;;;5.40;1.57;;;8.60;63.90;;;;;;5093481;28;20042;-65
2023/03/11 09:00:19;;;;;;;4.05;1.35;;;8.70;63.50;;;;;;5091042;28;20063;-65
2023/03/11 09:02:46;;;;;;;7.47;1.43;;;8.90;63.30;;;;;;5079290;28;20028;-65
2023/03/11 09:05:12;;;;;;;4.57;1.23;;;9.00;62.80;;;;;;5093130;28;20114;-65
2023/03/11 09:07:38;;;;;;;3.03;1.03;;;9.10;62.50;;;;;;5094107;28;20028;-65
2023/03/11 09:10:05;;;;;;;4.25;1.42;;;9.10;62.30;;;;;;5093202;28;20368;-65
2023/03/11 09:12:31;;;;;;;4.47;1.70;;;9.20;62.00;;;;;;5092488;28;20024;-65
2023/03/11 09:14:57;;;;;;;7.10;1.30;;;9.20;61.70;;;;;;5093902;28;20408;-66
2023/03/11 09:17:23;;;;;;;3.53;1.10;;;9.30;61.60;;;;;;5100318;28;20497;-66
2023/03/11 09:19:48;;;;;;;4.13;1.17;;;9.40;61.50;;;;;;5092802;28;20063;-66
2023/03/11 09:22:14;;;;;;;4.47;1.13;;;9.50;61.20;;;;;;5092975;28;20059;-66
2023/03/11 09:24:40;;;;;;;4.57;1.30;;;9.50;61.00;;;;;;5087250;28;20032;-66
2023/03/11 09:27:06;;;;;;;3.38;1.15;;;9.50;60.90;;;;;;5091629;28;20073;-66
2023/03/11 09:29:31;;;;;;;5.25;1.17;;;9.60;60.80;;;;;;5091088;28;20039;-65
2023/03/11 09:31:58;;;;;;;5.75;1.30;;;9.60;60.60;;;;;;5103393;28;20035;-65
2023/03/11 09:34:23;;;;;;;2.08;0.88;;;9.70;60.20;;;;;;5093180;28;20449;-66
2023/03/11 09:36:49;;;;;;;4.78;1.38;;;9.80;60.00;;;;;;5091765;28;20028;-65
2023/03/11 09:39:15;;;;;;;3.42;1.25;;;9.80;59.70;;;;;;5096684;28;20052;-65
2023/03/11 09:42:00;;;;;;;4.22;1.00;;;9.80;59.60;;;;;;5092994;28;20036;-66
2023/03/11 09:44:40;;;;;;;3.17;1.30;;;9.80;59.10;;;;;;5092983;28;20038;-65
2023/03/11 09:47:11;;;;;;;1.77;0.65;;;9.60;59.20;;;;;;5097808;28;20035;-66
2023/03/11 09:50:13;;;;;;;4.75;1.40;;;9.50;59.20;;;;;;5105000;28;20115;-66
2023/03/11 09:53:25;;;;;;;4.68;1.55;;;9.40;58.80;;;;;;5083258;28;20044;-66
2023/03/11 09:56:04;;;;;;;3.47;1.10;;;9.40;58.90;;;;;;5080195;28;20101;-66
2023/03/11 09:58:49;;;;;;;3.10;1.08;;;9.40;58.90;;;;;;5108367;28;20277;-65
2023/03/11 10:01:34;;;;;;;5.57;1.45;;;9.40;58.80;;;;;;5104530;28;20023;-65
2023/03/11 10:04:17;;;;;;;2.55;1.08;;;9.40;58.70;;;;;;5092076;28;20043;-66
2023/03/11 10:06:45;;;;;;;3.53;0.93;;;9.50;58.60;;;;;;5084475;28;20029;-66
2023/03/11 10:09:11;;;;;;;3.58;1.27;;;9.40;58.60;;;;;;5091924;28;20171;-66
2023/03/11 10:11:48;;;;;;;6.18;1.40;;;9.40;58.40;;;;;;5092784;28;20451;-66
2023/03/11 10:14:32;;;;;;;3.13;1.10;;;9.50;58.10;;;;;;5091236;28;20039;-66
2023/03/11 10:17:11;;;;;;;2.42;0.90;;;9.60;58.10;;;;;;5094444;28;20073;-65
2023/03/11 10:19:58;;;;;;;4.78;0.95;;;9.70;57.90;;;;;;5087049;28;20191;-66
2023/03/11 10:22:24;;;;;;;3.45;1.20;;;9.80;57.70;;;;;;5096039;28;20099;-66
2023/03/11 10:24:59;;;;;;;1.73;0.90;;;9.90;57.70;;;;;;5095868;28;20491;-66
2023/03/11 10:27:34;;;;;;;3.60;1.05;;;10.00;57.20;;;;;;5091694;28;20096;-66
2023/03/11 10:30:22;;;;;;;2.03;0.65;;;10.00;56.80;;;;;;5095211;28;20039;-66
2023/03/11 10:32:56;;;;;;;2.40;0.93;;;10.00;56.20;;;;;;5090916;28;20448;-65
2023/03/11 10:35:28;;;;;;;3.38;1.00;;;10.10;56.30;;;;;;5091819;28;20032;-66
2023/03/11 10:37:59;;;;;;;3.03;0.82;;;10.10;56.30;;;;;;5093168;28;20031;-66
2023/03/11 10:40:25;;;;;;;;;;;10.20;56.30;;;;;;5069116;28;20067;-66
2023/03/11 10:42:53;;;;;;;5.25;1.00;;;10.20;56.60;;;;;;5081742;28;19958;-66
2023/03/11 10:45:22;;;;;;;3.92;0.73;;;10.10;56.30;;;;;;5098966;28;20341;-65
2023/03/11 10:47:48;;;;;;;3.63;0.90;;;10.20;56.20;;;;;;5095570;28;20521;-65
2023/03/11 10:50:16;;;;;;;3.55;0.98;;;10.20;56.00;;;;;;5097981;28;20472;-66
2023/03/11 10:53:03;;;;;;;2.63;0.80;;;10.20;55.60;;;;;;5097068;28;20032;-66
2023/03/11 10:55:29;;;;;;;3.67;0.75;;;10.20;54.90;;;;;;5115443;27;20119;-66
2023/03/11 10:58:09;;;;;;;1.70;0.80;;;10.30;55.00;;;;;;5101805;28;20032;-66
2023/03/11 11:00:35;;;;;;;107.88;10.90;;;10.30;54.70;;;;;;5095403;28;20020;-66
2023/03/11 11:03:03;;;;;;;15.25;1.90;;;10.30;54.90;;;;;;5093194;28;20084;-65
2023/03/11 11:05:35;;;;;;;4.97;1.05;;;10.30;54.60;;;;;;5094656;28;20111;-66
2023/03/11 11:08:05;;;;;;;4.32;1.20;;;10.30;54.30;;;;;;5090828;28;20016;-64
2023/03/11 11:10:33;;;;;;;3.40;0.90;;;10.40;54.20;;;;;;5097439;28;20123;-64
2023/03/11 11:13:15;;;;;;;2.90;1.00;;;10.40;54.20;;;;;;5094868;28;20039;-64
2023/03/11 11:15:56;;;;;;;1.98;0.60;;;10.50;54.00;;;;;;5099569;28;20032;-65
2023/03/11 11:18:25;;;;;;;3.50;1.05;;;10.50;53.40;;;;;;5094129;28;20052;-64
2023/03/11 11:21:06;;;;;;;2.10;0.90;;;10.70;53.40;;;;;;5107846;28;20055;-64
2023/03/11 11:23:36;;;;;;;1.20;0.60;;;10.80;53.20;;;;;;5093766;28;20032;-64
2023/03/11 11:26:05;;;;;;;4.05;0.93;;;10.90;53.20;;;;;;5101832;28;20016;-64
2023/03/11 11:28:32;;;;;;;1.77;0.73;;;11.00;53.10;;;;;;5095471;28;20077;-64
2023/03/11 11:31:17;;;;;;;5.75;1.00;;;11.10;53.10;;;;;;5097473;28;20046;-64
2023/03/11 11:34:01;;;;;;;4.00;1.00;;;11.30;52.80;;;;;;5097734;28;20047;-64
2023/03/11 11:36:38;;;;;;;5.63;1.38;;;11.40;52.20;;;;;;5090523;28;20024;-64
2023/03/11 11:39:14;;;;;;;3.28;0.60;;;11.50;52.20;;;;;;5094216;28;20020;-64
2023/03/11 11:41:41;;;;;;;4.47;0.82;;;11.60;51.90;;;;;;5094632;28;20055;-64
2023/03/11 11:44:14;;;;;;;1.80;0.90;;;11.60;52.00;;;;;;5094554;28;20040;-65
2023/03/11 11:46:46;;;;;;;1.20;0.60;;;11.60;51.50;;;;;;5089237;28;20342;-65
2023/03/11 11:49:14;;;;;;;4.05;0.98;;;11.50;51.50;;;;;;5089251;28;20036;-65
2023/03/11 11:51:47;;;;;;;3.38;0.68;;;11.50;51.50;;;;;;5083260;28;20027;-66
2023/03/11 11:54:16;;;;;;;3.50;1.13;;;11.40;51.00;;;;;;5076827;28;20331;-65
2023/03/11 11:56:43;;;;;;;4.55;0.88;;;11.40;50.90;;;;;;5084521;28;20048;-66
2023/03/11 11:59:16;;;;;;;3.58;1.02;;;11.50;50.70;;;;;;5091419;28;20039;-65
2023/03/11 12:02:13;;;;;;;3.17;0.90;;;11.40;50.20;;;;;;5090421;28;20427;-65
2023/03/11 12:04:50;;;;;;;4.72;0.90;;;11.50;50.30;;;;;;5083167;28;20047;-65
2023/03/11 12:07:35;;;;;;;3.13;0.77;;;11.50;49.50;;;;;;5084332;28;20111;-65
2023/03/11 12:10:08;;;;;;;1.67;0.90;;;11.50;49.20;;;;;;5092581;28;20047;-66
2023/03/11 12:13:10;;;;;;;3.67;0.80;;;11.50;49.10;;;;;;5089225;28;20116;-65
2023/03/11 12:15:45;;;;;;;2.92;1.02;;;11.50;48.90;;;;;;5067260;28;20032;-65
2023/03/11 12:18:31;;;;;;;3.08;0.82;;;11.50;49.20;;;;;;5083867;28;20127;-66
2023/03/11 12:20:57;;;;;;;1.80;0.68;;;11.50;49.40;;;;;;5102888;28;20138;-66
2023/03/11 12:23:29;;;;;;;4.68;1.00;;;11.40;49.50;;;;;;5092923;28;20016;-66
2023/03/11 12:26:21;;;;;;;5.25;1.10;;;11.10;49.70;;;;;;5075683;28;20043;-66
2023/03/11 12:28:54;;;;;;;3.33;0.90;;;11.10;50.70;;;;;;5092975;28;20448;-66
2023/03/11 12:31:22;;;;;;;3.47;1.00;;;11.10;50.40;;;;;;5094996;28;20020;-66
2023/03/11 12:33:55;;;;;;;2.85;1.05;;;11.10;50.20;;;;;;5091219;28;20027;-66
2023/03/11 12:36:37;;;;;;;5.40;1.13;;;11.10;50.00;;;;;;5095102;28;20409;-66
2023/03/11 12:39:27;;;;;;;3.75;1.02;;;11.10;49.50;;;;;;5091078;28;20024;-66
2023/03/11 12:42:15;;;;;;;4.32;1.10;;;11.00;49.30;;;;;;5093116;28;20020;-66
2023/03/11 12:44:41;;;;;;;6.78;1.25;;;11.00;49.40;;;;;;5098577;28;20035;-65
2023/03/11 12:47:07;;;;;;;2.30;0.95;;;10.90;49.60;;;;;;5091807;28;20023;-66
2023/03/11 12:49:42;;;;;;;2.50;0.80;;;11.00;49.30;;;;;;5099844;28;20047;-66
2023/03/11 12:52:07;;;;;;;1.42;0.70;;;10.90;49.00;;;;;;5092648;28;20178;-66
2023/03/11 12:54:43;;;;;;;2.72;0.90;;;10.90;48.80;;;;;;5093651;28;20115;-66
2023/03/11 12:57:17;;;;;;;2.80;1.17;;;10.80;48.70;;;;;;5096095;28;20056;-65
2023/03/11 13:00:21;;;;;;;5.53;1.20;;;10.70;48.60;;;;;;5093624;28;20078;-66
2023/03/11 13:03:18;;;;;;;3.40;0.80;;;10.70;48.40;;;;;;5093537;28;20078;-65
2023/03/11 13:05:44;;;;;;;4.00;1.00;;;10.70;48.40;;;;;;5094281;28;20182;-66
2023/03/11 13:08:14;;;;;;;2.63;0.90;;;10.60;48.60;;;;;;5073022;28;20687;-65